sensor_id;sensor_type;location;lat;lon;timestamp;temperature;humidity
9939;DHT22;5008;50.656;7.188;2023-08-17T04:02:51;19.60;99.90
9939;DHT22;5008;50.656;7.188;2023-08-17T04:05:18;19.60;99.90
9939;DHT22;5008;50.656;7.188;2023-08-17T04:07:44;19.60;99.90
9939;DHT22;5008;50.656;7.188;2023-08-17T04:10:13;19.60;99.90
9939;DHT22;5008;50.656;7.188;2023-08-17T04:12:39;19.70;99.90
9939;DHT22;5008;50.656;7.188;2023-08-17T04:17:39;19.70;99.90
9939;DHT22;5008;50.656;7.188;2023-08-17T04:20:08;19.70;99.90
9939;DHT22;5008;50.656;7.188;2023-08-17T04:22:35;19.70;99.90
9939;DHT22;5008;50.656;7.188;2023-08-17T04:25:02;19.70;99.90
9939;DHT22;5008;50.656;7.188;2023-08-17T04:27:29;19.70;99.90
9939;DHT22;5008;50.656;7.188;2023-08-17T04:29:56;19.70;99.90
9939;DHT22;5008;50.656;7.188;2023-08-17T04:32:23;19.70;99.90
9939;DHT22;5008;50.656;7.188;2023-08-17T04:34:50;19.70;99.90
9939;DHT22;5008;50.656;7.188;2023-08-17T04:37:30;19.70;99.90
9939;DHT22;5008;50.656;7.188;2023-08-17T04:39:57;19.70;99.90
9939;DHT22;5008;50.656;7.188;2023-08-17T04:42:23;19.70;99.90
9939;DHT22;5008;50.656;7.188;2023-08-17T04:44:51;19.70;99.90
9939;DHT22;5008;50.656;7.188;2023-08-17T04:47:20;19.60;99.90
9939;DHT22;5008;50.656;7.188;2023-08-17T04:49:47;19.60;99.90
9939;DHT22;5008;50.656;7.188;2023-08-17T04:52:15;19.60;99.90
9939;DHT22;5008;50.656;7.188;2023-08-17T04:54:43;19.60;99.90
9939;DHT22;5008;50.656;7.188;2023-08-17T04:57:09;19.60;99.90
9939;DHT22;5008;50.656;7.188;2023-08-17T04:59:36;19.60;99.90
9939;DHT22;5008;50.656;7.188;2023-08-17T05:02:03;19.60;99.90
9939;DHT22;5008;50.656;7.188;2023-08-17T05:04:36;19.60;99.90
9939;DHT22;5008;50.656;7.188;2023-08-17T05:07:21;19.60;99.90
9939;DHT22;5008;50.656;7.188;2023-08-17T05:10:10;19.60;99.90
9939;DHT22;5008;50.656;7.188;2023-08-17T05:12:37;19.60;99.90
9939;DHT22;5008;50.656;7.188;2023-08-17T05:15:07;19.60;99.90
9939;DHT22;5008;50.656;7.188;2023-08-17T05:17:34;19.60;99.90
9939;DHT22;5008;50.656;7.188;2023-08-17T05:23:29;19.60;99.90
9939;DHT22;5008;50.656;7.188;2023-08-17T05:26:17;19.60;99.90
9939;DHT22;5008;50.656;7.188;2023-08-17T05:29:05;19.60;99.90
9939;DHT22;5008;50.656;7.188;2023-08-17T05:31:40;19.60;99.90
9939;DHT22;5008;50.656;7.188;2023-08-17T05:34:23;19.60;99.90
9939;DHT22;5008;50.656;7.188;2023-08-17T05:37:07;19.60;99.90
9939;DHT22;5008;50.656;7.188;2023-08-17T05:39:33;19.60;99.90
9939;DHT22;5008;50.656;7.188;2023-08-17T05:42:01;19.60;99.90
9939;DHT22;5008;50.656;7.188;2023-08-17T05:44:28;19.60;99.90
9939;DHT22;5008;50.656;7.188;2023-08-17T05:46:55;19.60;99.90
9939;DHT22;5008;50.656;7.188;2023-08-17T05:49:22;19.60;99.90
9939;DHT22;5008;50.656;7.188;2023-08-17T05:51:48;19.50;99.90
9939;DHT22;5008;50.656;7.188;2023-08-17T05:54:15;19.50;99.90
9939;DHT22;5008;50.656;7.188;2023-08-17T05:56:42;19.50;99.90
9939;DHT22;5008;50.656;7.188;2023-08-17T05:59:13;19.50;99.90
9939;DHT22;5008;50.656;7.188;2023-08-17T06:01:40;19.50;99.90
9939;DHT22;5008;50.656;7.188;2023-08-17T06:04:09;19.50;99.90
9939;DHT22;5008;50.656;7.188;2023-08-17T06:06:43;19.40;99.90
9939;DHT22;5008;50.656;7.188;2023-08-17T06:09:10;19.40;99.90
9939;DHT22;5008;50.656;7.188;2023-08-17T06:11:36;19.40;99.90
9939;DHT22;5008;50.656;7.188;2023-08-17T06:14:04;19.40;99.90
9939;DHT22;5008;50.656;7.188;2023-08-17T06:16:32;19.40;99.90
9939;DHT22;5008;50.656;7.188;2023-08-17T06:18:59;19.40;99.90
9939;DHT22;5008;50.656;7.188;2023-08-17T06:21:26;19.40;99.90
9939;DHT22;5008;50.656;7.188;2023-08-17T06:23:53;19.40;99.90
9939;DHT22;5008;50.656;7.188;2023-08-17T06:26:20;19.30;99.90
9939;DHT22;5008;50.656;7.188;2023-08-17T06:28:47;19.30;99.90
9939;DHT22;5008;50.656;7.188;2023-08-17T06:31:14;19.40;99.90
9939;DHT22;5008;50.656;7.188;2023-08-17T06:33:42;19.40;99.90
9939;DHT22;5008;50.656;7.188;2023-08-17T06:36:09;19.30;99.90
9939;DHT22;5008;50.656;7.188;2023-08-17T06:38:55;19.30;99.90
9939;DHT22;5008;50.656;7.188;2023-08-17T06:41:22;19.40;99.90
9939;DHT22;5008;50.656;7.188;2023-08-17T06:43:50;19.40;99.90
9939;DHT22;5008;50.656;7.188;2023-08-17T06:46:17;19.30;99.90
9939;DHT22;5008;50.656;7.188;2023-08-17T06:48:45;19.30;99.90
9939;DHT22;5008;50.656;7.188;2023-08-17T06:51:12;19.40;99.90
9939;DHT22;5008;50.656;7.188;2023-08-17T06:53:39;19.40;99.90
9939;DHT22;5008;50.656;7.188;2023-08-17T06:56:06;19.40;99.90
9939;DHT22;5008;50.656;7.188;2023-08-17T06:58:35;19.40;99.90
9939;DHT22;5008;50.656;7.188;2023-08-17T07:01:03;19.40;99.90
9939;DHT22;5008;50.656;7.188;2023-08-17T07:03:30;19.40;99.90
9939;DHT22;5008;50.656;7.188;2023-08-17T07:05:58;19.40;99.90
9939;DHT22;5008;50.656;7.188;2023-08-17T07:08:25;19.40;99.90
9939;DHT22;5008;50.656;7.188;2023-08-17T07:10:51;19.40;99.90
9939;DHT22;5008;50.656;7.188;2023-08-17T07:13:18;19.40;99.90
9939;DHT22;5008;50.656;7.188;2023-08-17T07:15:45;19.40;99.90
9939;DHT22;5008;50.656;7.188;2023-08-17T07:18:12;19.50;99.90
9939;DHT22;5008;50.656;7.188;2023-08-17T07:20:39;19.50;99.90
9939;DHT22;5008;50.656;7.188;2023-08-17T07:23:07;19.50;99.90
9939;DHT22;5008;50.656;7.188;2023-08-17T07:25:33;19.50;99.90
9939;DHT22;5008;50.656;7.188;2023-08-17T07:28:00;19.60;99.90
9939;DHT22;5008;50.656;7.188;2023-08-17T07:30:27;19.60;99.90
9939;DHT22;5008;50.656;7.188;2023-08-17T07:32:54;19.60;99.90
9939;DHT22;5008;50.656;7.188;2023-08-17T07:35:21;19.60;99.90
9939;DHT22;5008;50.656;7.188;2023-08-17T07:37:47;19.60;99.90
9939;DHT22;5008;50.656;7.188;2023-08-17T07:40:16;19.60;99.90
9939;DHT22;5008;50.656;7.188;2023-08-17T07:42:52;19.60;99.90
9939;DHT22;5008;50.656;7.188;2023-08-17T07:45:18;19.60;99.90
9939;DHT22;5008;50.656;7.188;2023-08-17T07:47:45;19.60;99.90
9939;DHT22;5008;50.656;7.188;2023-08-17T07:50:12;19.60;99.90
9939;DHT22;5008;50.656;7.188;2023-08-17T07:52:39;19.60;99.90
9939;DHT22;5008;50.656;7.188;2023-08-17T07:55:06;19.70;99.90
9939;DHT22;5008;50.656;7.188;2023-08-17T07:57:35;19.70;99.90
9939;DHT22;5008;50.656;7.188;2023-08-17T08:00:02;19.70;99.90
9939;DHT22;5008;50.656;7.188;2023-08-17T08:02:29;19.70;99.90
9939;DHT22;5008;50.656;7.188;2023-08-17T08:04:56;19.70;99.90
9939;DHT22;5008;50.656;7.188;2023-08-17T08:07:22;19.70;99.90
9939;DHT22;5008;50.656;7.188;2023-08-17T08:09:49;19.70;99.90
9939;DHT22;5008;50.656;7.188;2023-08-17T08:12:16;19.70;99.90
9939;DHT22;5008;50.656;7.188;2023-08-17T08:14:44;19.80;99.90
9939;DHT22;5008;50.656;7.188;2023-08-17T08:17:11;19.90;99.90
9939;DHT22;5008;50.656;7.188;2023-08-17T08:19:38;19.80;99.90
9939;DHT22;5008;50.656;7.188;2023-08-17T08:22:04;19.90;99.90
9939;DHT22;5008;50.656;7.188;2023-08-17T08:24:31;19.90;99.90
9939;DHT22;5008;50.656;7.188;2023-08-17T08:27:00;19.90;99.90
9939;DHT22;5008;50.656;7.188;2023-08-17T08:29:27;20.00;99.90
9939;DHT22;5008;50.656;7.188;2023-08-17T08:31:55;20.10;99.90
9939;DHT22;5008;50.656;7.188;2023-08-17T08:34:22;20.10;99.90
9939;DHT22;5008;50.656;7.188;2023-08-17T08:36:49;20.10;99.90
9939;DHT22;5008;50.656;7.188;2023-08-17T08:39:16;20.10;99.90
9939;DHT22;5008;50.656;7.188;2023-08-17T08:41:44;20.10;99.90
9939;DHT22;5008;50.656;7.188;2023-08-17T08:44:10;20.10;99.90
9939;DHT22;5008;50.656;7.188;2023-08-17T08:46:40;20.10;99.90
9939;DHT22;5008;50.656;7.188;2023-08-17T08:49:10;20.20;99.90
9939;DHT22;5008;50.656;7.188;2023-08-17T08:51:41;20.20;99.90
9939;DHT22;5008;50.656;7.188;2023-08-17T08:54:12;20.20;99.90
9939;DHT22;5008;50.656;7.188;2023-08-17T08:56:42;20.30;99.90
9939;DHT22;5008;50.656;7.188;2023-08-17T08:59:10;20.40;99.90
9939;DHT22;5008;50.656;7.188;2023-08-17T09:01:38;20.40;99.90
9939;DHT22;5008;50.656;7.188;2023-08-17T09:04:05;20.40;99.90
9939;DHT22;5008;50.656;7.188;2023-08-17T09:06:34;20.40;99.90
9939;DHT22;5008;50.656;7.188;2023-08-17T09:09:01;20.40;99.90
9939;DHT22;5008;50.656;7.188;2023-08-17T09:11:29;20.40;99.90
9939;DHT22;5008;50.656;7.188;2023-08-17T09:13:56;20.50;99.90
9939;DHT22;5008;50.656;7.188;2023-08-17T09:16:23;20.50;99.90
9939;DHT22;5008;50.656;7.188;2023-08-17T09:18:52;20.60;99.90
9939;DHT22;5008;50.656;7.188;2023-08-17T09:21:23;20.60;99.90
9939;DHT22;5008;50.656;7.188;2023-08-17T09:23:52;20.60;99.90
9939;DHT22;5008;50.656;7.188;2023-08-17T09:26:19;20.60;99.90
9939;DHT22;5008;50.656;7.188;2023-08-17T09:28:47;20.70;99.90
9939;DHT22;5008;50.656;7.188;2023-08-17T09:31:14;20.70;99.90
9939;DHT22;5008;50.656;7.188;2023-08-17T09:33:41;20.70;99.90
9939;DHT22;5008;50.656;7.188;2023-08-17T09:36:10;20.70;99.90
9939;DHT22;5008;50.656;7.188;2023-08-17T09:38:38;20.70;99.90
9939;DHT22;5008;50.656;7.188;2023-08-17T09:41:06;20.70;99.90
9939;DHT22;5008;50.656;7.188;2023-08-17T09:43:33;20.70;99.90
9939;DHT22;5008;50.656;7.188;2023-08-17T09:46:00;20.80;99.90
9939;DHT22;5008;50.656;7.188;2023-08-17T09:48:28;20.80;99.90
9939;DHT22;5008;50.656;7.188;2023-08-17T09:50:56;20.90;99.90
9939;DHT22;5008;50.656;7.188;2023-08-17T09:53:23;20.90;99.90
9939;DHT22;5008;50.656;7.188;2023-08-17T09:55:51;20.80;99.90
9939;DHT22;5008;50.656;7.188;2023-08-17T09:58:21;20.80;99.90
9939;DHT22;5008;50.656;7.188;2023-08-17T10:00:50;20.90;99.90
9939;DHT22;5008;50.656;7.188;2023-08-17T10:03:18;21.00;99.90
9939;DHT22;5008;50.656;7.188;2023-08-17T10:05:50;21.00;99.90
9939;DHT22;5008;50.656;7.188;2023-08-17T10:08:20;21.00;99.90
9939;DHT22;5008;50.656;7.188;2023-08-17T10:10:47;21.10;99.90
9939;DHT22;5008;50.656;7.188;2023-08-17T10:13:20;21.20;99.90
9939;DHT22;5008;50.656;7.188;2023-08-17T10:15:57;21.30;99.90
9939;DHT22;5008;50.656;7.188;2023-08-17T10:18:31;21.40;99.90
9939;DHT22;5008;50.656;7.188;2023-08-17T10:21:02;21.40;99.90
9939;DHT22;5008;50.656;7.188;2023-08-17T10:23:31;21.40;99.90
9939;DHT22;5008;50.656;7.188;2023-08-17T10:26:00;21.40;99.90
9939;DHT22;5008;50.656;7.188;2023-08-17T10:28:28;21.40;99.90
9939;DHT22;5008;50.656;7.188;2023-08-17T10:30:59;21.40;99.90
9939;DHT22;5008;50.656;7.188;2023-08-17T10:33:28;21.50;99.90
9939;DHT22;5008;50.656;7.188;2023-08-17T10:35:56;21.60;99.90
9939;DHT22;5008;50.656;7.188;2023-08-17T10:38:29;21.70;99.90
9939;DHT22;5008;50.656;7.188;2023-08-17T10:41:09;21.80;99.90
9939;DHT22;5008;50.656;7.188;2023-08-17T10:43:57;21.90;99.90
9939;DHT22;5008;50.656;7.188;2023-08-17T10:46:38;21.90;99.90
9939;DHT22;5008;50.656;7.188;2023-08-17T10:49:07;21.90;99.90
9939;DHT22;5008;50.656;7.188;2023-08-17T10:52:11;21.90;99.90
9939;DHT22;5008;50.656;7.188;2023-08-17T10:54:38;21.80;99.90
9939;DHT22;5008;50.656;7.188;2023-08-17T10:57:33;21.80;99.90
9939;DHT22;5008;50.656;7.188;2023-08-17T11:00:15;21.80;99.90
9939;DHT22;5008;50.656;7.188;2023-08-17T11:02:55;21.80;99.90
9939;DHT22;5008;50.656;7.188;2023-08-17T11:05:38;21.90;99.90
9939;DHT22;5008;50.656;7.188;2023-08-17T11:08:05;21.90;99.90
9939;DHT22;5008;50.656;7.188;2023-08-17T11:10:32;21.90;99.90
9939;DHT22;5008;50.656;7.188;2023-08-17T11:13:00;21.90;99.90
9939;DHT22;5008;50.656;7.188;2023-08-17T11:15:36;21.90;99.90
9939;DHT22;5008;50.656;7.188;2023-08-17T11:18:06;21.90;99.90
9939;DHT22;5008;50.656;7.188;2023-08-17T11:20:33;21.90;99.90
9939;DHT22;5008;50.656;7.188;2023-08-17T11:23:00;21.90;99.90
9939;DHT22;5008;50.656;7.188;2023-08-17T11:25:28;21.90;99.90
9939;DHT22;5008;50.656;7.188;2023-08-17T11:28:09;21.90;99.90
9939;DHT22;5008;50.656;7.188;2023-08-17T11:30:39;22.00;99.90
9939;DHT22;5008;50.656;7.188;2023-08-17T11:33:07;21.90;99.90
9939;DHT22;5008;50.656;7.188;2023-08-17T11:35:34;22.00;99.90
9939;DHT22;5008;50.656;7.188;2023-08-17T11:38:03;22.00;99.90
9939;DHT22;5008;50.656;7.188;2023-08-17T11:40:34;22.00;99.90
9939;DHT22;5008;50.656;7.188;2023-08-17T11:43:02;22.00;99.90
9939;DHT22;5008;50.656;7.188;2023-08-17T11:45:32;22.10;99.90
9939;DHT22;5008;50.656;7.188;2023-08-17T11:47:58;22.20;99.90
9939;DHT22;5008;50.656;7.188;2023-08-17T11:50:27;22.20;99.90
9939;DHT22;5008;50.656;7.188;2023-08-17T11:52:53;22.30;99.90
9939;DHT22;5008;50.656;7.188;2023-08-17T11:55:20;22.40;99.90
9939;DHT22;5008;50.656;7.188;2023-08-17T11:57:47;22.40;99.90
9939;DHT22;5008;50.656;7.188;2023-08-17T12:00:22;22.50;99.90
9939;DHT22;5008;50.656;7.188;2023-08-17T12:02:54;22.60;99.90
9939;DHT22;5008;50.656;7.188;2023-08-17T12:05:26;22.60;99.90
9939;DHT22;5008;50.656;7.188;2023-08-17T12:07:55;22.60;99.90
9939;DHT22;5008;50.656;7.188;2023-08-17T12:10:22;22.60;99.90
9939;DHT22;5008;50.656;7.188;2023-08-17T12:12:49;22.50;99.90
9939;DHT22;5008;50.656;7.188;2023-08-17T12:15:16;22.60;99.90
9939;DHT22;5008;50.656;7.188;2023-08-17T12:17:48;22.60;99.90
9939;DHT22;5008;50.656;7.188;2023-08-17T12:20:17;22.60;99.90
9939;DHT22;5008;50.656;7.188;2023-08-17T12:22:45;22.50;99.90
9939;DHT22;5008;50.656;7.188;2023-08-17T12:25:12;22.70;99.90
9939;DHT22;5008;50.656;7.188;2023-08-17T12:27:40;22.70;99.90
9939;DHT22;5008;50.656;7.188;2023-08-17T12:30:23;22.70;99.90
9939;DHT22;5008;50.656;7.188;2023-08-17T12:32:50;22.80;99.90
9939;DHT22;5008;50.656;7.188;2023-08-17T12:35:17;22.70;99.90
9939;DHT22;5008;50.656;7.188;2023-08-17T12:37:48;22.70;99.90
9939;DHT22;5008;50.656;7.188;2023-08-17T12:40:15;22.70;99.90
9939;DHT22;5008;50.656;7.188;2023-08-17T12:42:42;22.70;99.90
9939;DHT22;5008;50.656;7.188;2023-08-17T12:45:11;22.80;99.90
9939;DHT22;5008;50.656;7.188;2023-08-17T12:47:38;22.80;99.90
9939;DHT22;5008;50.656;7.188;2023-08-17T12:50:06;22.80;99.90
9939;DHT22;5008;50.656;7.188;2023-08-17T12:52:33;22.90;99.90
9939;DHT22;5008;50.656;7.188;2023-08-17T12:55:02;23.00;99.90
9939;DHT22;5008;50.656;7.188;2023-08-17T12:57:29;23.00;99.90
9939;DHT22;5008;50.656;7.188;2023-08-17T12:59:56;23.00;99.90
9939;DHT22;5008;50.656;7.188;2023-08-17T13:02:27;23.00;99.90
9939;DHT22;5008;50.656;7.188;2023-08-17T13:04:54;23.00;99.90
9939;DHT22;5008;50.656;7.188;2023-08-17T13:07:21;23.00;99.90
9939;DHT22;5008;50.656;7.188;2023-08-17T13:09:48;23.00;99.90
9939;DHT22;5008;50.656;7.188;2023-08-17T13:12:16;23.20;99.90
9939;DHT22;5008;50.656;7.188;2023-08-17T13:14:43;23.20;99.90
9939;DHT22;5008;50.656;7.188;2023-08-17T13:17:10;23.30;99.90
9939;DHT22;5008;50.656;7.188;2023-08-17T13:19:42;23.30;99.90
9939;DHT22;5008;50.656;7.188;2023-08-17T13:22:10;23.30;99.90
9939;DHT22;5008;50.656;7.188;2023-08-17T13:24:36;23.40;99.90
9939;DHT22;5008;50.656;7.188;2023-08-17T13:27:05;23.40;99.90
9939;DHT22;5008;50.656;7.188;2023-08-17T13:29:34;23.40;99.90
9939;DHT22;5008;50.656;7.188;2023-08-17T13:32:04;23.40;99.90
9939;DHT22;5008;50.656;7.188;2023-08-17T13:34:31;23.40;99.90
9939;DHT22;5008;50.656;7.188;2023-08-17T13:36:58;23.50;99.90
9939;DHT22;5008;50.656;7.188;2023-08-17T13:39:25;23.50;99.90
9939;DHT22;5008;50.656;7.188;2023-08-17T13:41:52;23.50;99.90
9939;DHT22;5008;50.656;7.188;2023-08-17T13:44:18;23.50;99.90
9939;DHT22;5008;50.656;7.188;2023-08-17T13:46:47;23.40;99.90
9939;DHT22;5008;50.656;7.188;2023-08-17T13:49:14;23.30;99.90
9939;DHT22;5008;50.656;7.188;2023-08-17T13:51:41;23.40;99.90
9939;DHT22;5008;50.656;7.188;2023-08-17T13:54:08;23.40;99.90
9939;DHT22;5008;50.656;7.188;2023-08-17T13:56:40;23.50;99.90
9939;DHT22;5008;50.656;7.188;2023-08-17T13:59:07;23.50;99.90
9939;DHT22;5008;50.656;7.188;2023-08-17T14:01:34;23.50;99.90
9939;DHT22;5008;50.656;7.188;2023-08-17T14:04:03;23.50;99.90
9939;DHT22;5008;50.656;7.188;2023-08-17T14:06:32;23.60;99.90
9939;DHT22;5008;50.656;7.188;2023-08-17T14:09:08;23.60;99.90
9939;DHT22;5008;50.656;7.188;2023-08-17T14:11:35;23.60;99.90
9939;DHT22;5008;50.656;7.188;2023-08-17T14:14:05;23.60;99.90
9939;DHT22;5008;50.656;7.188;2023-08-17T14:16:36;23.50;99.90
9939;DHT22;5008;50.656;7.188;2023-08-17T14:19:04;23.70;99.90
9939;DHT22;5008;50.656;7.188;2023-08-17T14:21:31;23.80;99.90
9939;DHT22;5008;50.656;7.188;2023-08-17T14:23:58;23.80;99.90
9939;DHT22;5008;50.656;7.188;2023-08-17T14:26:25;23.90;99.90
9939;DHT22;5008;50.656;7.188;2023-08-17T14:28:57;23.80;99.90
9939;DHT22;5008;50.656;7.188;2023-08-17T14:31:29;23.90;99.90
9939;DHT22;5008;50.656;7.188;2023-08-17T14:33:58;24.00;99.90
9939;DHT22;5008;50.656;7.188;2023-08-17T14:36:27;24.00;99.90
9939;DHT22;5008;50.656;7.188;2023-08-17T14:39:00;24.00;99.90
9939;DHT22;5008;50.656;7.188;2023-08-17T14:41:28;23.90;99.90
9939;DHT22;5008;50.656;7.188;2023-08-17T14:43:57;23.80;99.90
9939;DHT22;5008;50.656;7.188;2023-08-17T14:46:25;23.80;99.90
9939;DHT22;5008;50.656;7.188;2023-08-17T14:48:53;23.80;99.90
9939;DHT22;5008;50.656;7.188;2023-08-17T14:51:20;23.70;99.90
9939;DHT22;5008;50.656;7.188;2023-08-17T14:53:49;23.70;99.90
9939;DHT22;5008;50.656;7.188;2023-08-17T14:56:16;23.70;99.90
9939;DHT22;5008;50.656;7.188;2023-08-17T14:58:43;23.70;99.90
9939;DHT22;5008;50.656;7.188;2023-08-17T15:01:10;23.60;99.90
9939;DHT22;5008;50.656;7.188;2023-08-17T15:03:43;23.60;99.90
9939;DHT22;5008;50.656;7.188;2023-08-17T15:06:10;23.60;99.90
9939;DHT22;5008;50.656;7.188;2023-08-17T15:08:37;23.60;99.90
9939;DHT22;5008;50.656;7.188;2023-08-17T15:11:05;23.70;99.90
9939;DHT22;5008;50.656;7.188;2023-08-17T15:13:32;23.80;99.90
9939;DHT22;5008;50.656;7.188;2023-08-17T15:15:59;23.80;99.90
9939;DHT22;5008;50.656;7.188;2023-08-17T15:18:26;23.80;99.90
9939;DHT22;5008;50.656;7.188;2023-08-17T15:20:53;23.80;99.90
9939;DHT22;5008;50.656;7.188;2023-08-17T15:23:20;23.80;99.90
9939;DHT22;5008;50.656;7.188;2023-08-17T15:25:50;23.80;99.90
9939;DHT22;5008;50.656;7.188;2023-08-17T15:28:18;23.80;99.90
9939;DHT22;5008;50.656;7.188;2023-08-17T15:30:45;23.80;99.90
9939;DHT22;5008;50.656;7.188;2023-08-17T15:33:12;23.90;99.90
9939;DHT22;5008;50.656;7.188;2023-08-17T15:35:42;24.00;99.90
9939;DHT22;5008;50.656;7.188;2023-08-17T15:38:10;24.00;99.90
9939;DHT22;5008;50.656;7.188;2023-08-17T15:40:38;24.00;99.90
9939;DHT22;5008;50.656;7.188;2023-08-17T15:43:05;23.90;99.90
9939;DHT22;5008;50.656;7.188;2023-08-17T15:45:33;24.00;99.90
9939;DHT22;5008;50.656;7.188;2023-08-17T15:48:02;24.40;99.90
9939;DHT22;5008;50.656;7.188;2023-08-17T15:50:29;25.10;99.90
9939;DHT22;5008;50.656;7.188;2023-08-17T15:52:56;26.20;99.90
9939;DHT22;5008;50.656;7.188;2023-08-17T15:55:23;27.80;99.90
9939;DHT22;5008;50.656;7.188;2023-08-17T15:57:50;28.00;99.90
9939;DHT22;5008;50.656;7.188;2023-08-17T16:00:26;27.80;99.90
9939;DHT22;5008;50.656;7.188;2023-08-17T16:02:58;28.70;99.90
9939;DHT22;5008;50.656;7.188;2023-08-17T16:05:25;29.80;99.90
9939;DHT22;5008;50.656;7.188;2023-08-17T16:07:52;29.40;99.90
9939;DHT22;5008;50.656;7.188;2023-08-17T16:10:22;29.00;99.90
9939;DHT22;5008;50.656;7.188;2023-08-17T16:12:49;29.10;99.90
9939;DHT22;5008;50.656;7.188;2023-08-17T16:15:16;28.30;99.90
9939;DHT22;5008;50.656;7.188;2023-08-17T16:17:42;27.50;99.90
9939;DHT22;5008;50.656;7.188;2023-08-17T16:20:12;26.70;99.90
9939;DHT22;5008;50.656;7.188;2023-08-17T16:22:39;26.00;99.90
9939;DHT22;5008;50.656;7.188;2023-08-17T16:25:08;25.70;99.90
9939;DHT22;5008;50.656;7.188;2023-08-17T16:27:35;25.40;99.90
9939;DHT22;5008;50.656;7.188;2023-08-17T16:30:02;25.10;99.90
9939;DHT22;5008;50.656;7.188;2023-08-17T16:32:29;24.90;99.90
9939;DHT22;5008;50.656;7.188;2023-08-17T16:35:03;25.00;99.90
9939;DHT22;5008;50.656;7.188;2023-08-17T16:37:31;25.70;99.90
9939;DHT22;5008;50.656;7.188;2023-08-17T16:39:58;25.70;99.90
9939;DHT22;5008;50.656;7.188;2023-08-17T16:42:25;25.50;99.90
9939;DHT22;5008;50.656;7.188;2023-08-17T16:44:52;25.20;99.90
9939;DHT22;5008;50.656;7.188;2023-08-17T16:47:19;25.00;99.90
9939;DHT22;5008;50.656;7.188;2023-08-17T16:49:47;24.80;99.90
9939;DHT22;5008;50.656;7.188;2023-08-17T16:52:23;24.60;99.90
9939;DHT22;5008;50.656;7.188;2023-08-17T16:54:51;24.40;99.90
9939;DHT22;5008;50.656;7.188;2023-08-17T16:57:18;24.20;99.90
9939;DHT22;5008;50.656;7.188;2023-08-17T16:59:45;24.10;99.90
9939;DHT22;5008;50.656;7.188;2023-08-17T17:02:12;24.10;99.90
9939;DHT22;5008;50.656;7.188;2023-08-17T17:04:38;24.00;99.90
9939;DHT22;5008;50.656;7.188;2023-08-17T17:07:10;24.00;99.90
9939;DHT22;5008;50.656;7.188;2023-08-17T17:09:37;23.90;99.90
9939;DHT22;5008;50.656;7.188;2023-08-17T17:12:06;23.80;99.90
9939;DHT22;5008;50.656;7.188;2023-08-17T17:14:33;23.70;99.90
9939;DHT22;5008;50.656;7.188;2023-08-17T17:17:01;23.80;99.90
9939;DHT22;5008;50.656;7.188;2023-08-17T17:19:35;23.70;99.90
9939;DHT22;5008;50.656;7.188;2023-08-17T17:22:02;23.70;99.90
9939;DHT22;5008;50.656;7.188;2023-08-17T17:24:29;23.70;99.90
9939;DHT22;5008;50.656;7.188;2023-08-17T17:26:57;23.70;99.90
9939;DHT22;5008;50.656;7.188;2023-08-17T17:29:26;23.60;99.90
9939;DHT22;5008;50.656;7.188;2023-08-17T17:31:53;23.70;99.90
9939;DHT22;5008;50.656;7.188;2023-08-17T17:34:20;23.60;99.90
9939;DHT22;5008;50.656;7.188;2023-08-17T17:36:46;23.50;99.90
9939;DHT22;5008;50.656;7.188;2023-08-17T17:39:14;23.50;99.90
9939;DHT22;5008;50.656;7.188;2023-08-17T17:41:41;23.50;99.90
9939;DHT22;5008;50.656;7.188;2023-08-17T17:44:11;23.40;99.90
9939;DHT22;5008;50.656;7.188;2023-08-17T17:46:40;23.40;99.90
9939;DHT22;5008;50.656;7.188;2023-08-17T17:49:06;23.30;99.90
9939;DHT22;5008;50.656;7.188;2023-08-17T17:51:33;23.30;99.90
9939;DHT22;5008;50.656;7.188;2023-08-17T17:54:00;23.20;99.90
9939;DHT22;5008;50.656;7.188;2023-08-17T17:56:36;23.20;99.90
9939;DHT22;5008;50.656;7.188;2023-08-17T17:59:04;23.20;99.90
9939;DHT22;5008;50.656;7.188;2023-08-17T18:01:31;23.10;99.90
9939;DHT22;5008;50.656;7.188;2023-08-17T18:04:00;23.10;99.90
9939;DHT22;5008;50.656;7.188;2023-08-17T18:06:27;23.10;99.90
9939;DHT22;5008;50.656;7.188;2023-08-17T18:08:54;23.10;99.90
9939;DHT22;5008;50.656;7.188;2023-08-17T18:11:22;23.10;99.90
9939;DHT22;5008;50.656;7.188;2023-08-17T18:13:50;23.00;99.90
9939;DHT22;5008;50.656;7.188;2023-08-17T18:16:17;23.00;99.90
9939;DHT22;5008;50.656;7.188;2023-08-17T18:18:44;23.00;99.90
9939;DHT22;5008;50.656;7.188;2023-08-17T18:21:12;22.90;99.90
9939;DHT22;5008;50.656;7.188;2023-08-17T18:23:39;23.00;99.90
9939;DHT22;5008;50.656;7.188;2023-08-17T18:26:08;22.90;99.90
9939;DHT22;5008;50.656;7.188;2023-08-17T18:28:35;22.90;99.90
9939;DHT22;5008;50.656;7.188;2023-08-17T18:31:02;22.80;99.90
9939;DHT22;5008;50.656;7.188;2023-08-17T18:33:29;22.90;99.90
9939;DHT22;5008;50.656;7.188;2023-08-17T18:35:56;22.80;99.90
9939;DHT22;5008;50.656;7.188;2023-08-17T18:38:25;22.80;99.90
9939;DHT22;5008;50.656;7.188;2023-08-17T18:40:51;22.80;99.90
9939;DHT22;5008;50.656;7.188;2023-08-17T18:43:18;22.70;99.90
9939;DHT22;5008;50.656;7.188;2023-08-17T18:45:45;22.60;99.90
9939;DHT22;5008;50.656;7.188;2023-08-17T18:48:27;22.60;99.90
9939;DHT22;5008;50.656;7.188;2023-08-17T18:50:55;22.50;99.90
9939;DHT22;5008;50.656;7.188;2023-08-17T18:53:22;22.50;99.90
9939;DHT22;5008;50.656;7.188;2023-08-17T18:55:50;22.40;99.90
9939;DHT22;5008;50.656;7.188;2023-08-17T18:58:18;22.40;99.90
9939;DHT22;5008;50.656;7.188;2023-08-17T19:00:45;22.30;99.90
9939;DHT22;5008;50.656;7.188;2023-08-17T19:03:12;22.40;99.90
9939;DHT22;5008;50.656;7.188;2023-08-17T19:05:39;22.30;99.90
9939;DHT22;5008;50.656;7.188;2023-08-17T19:08:06;22.20;99.90
9939;DHT22;5008;50.656;7.188;2023-08-17T19:10:33;22.10;99.90
9939;DHT22;5008;50.656;7.188;2023-08-17T19:13:03;22.00;99.90
9939;DHT22;5008;50.656;7.188;2023-08-17T19:15:30;22.00;99.90
9939;DHT22;5008;50.656;7.188;2023-08-17T19:17:58;21.90;99.90
9939;DHT22;5008;50.656;7.188;2023-08-17T19:20:25;21.90;99.90
9939;DHT22;5008;50.656;7.188;2023-08-17T19:22:52;21.90;99.90
9939;DHT22;5008;50.656;7.188;2023-08-17T19:25:21;21.80;99.90
9939;DHT22;5008;50.656;7.188;2023-08-17T19:27:48;21.70;99.90
9939;DHT22;5008;50.656;7.188;2023-08-17T19:30:19;21.70;99.90
9939;DHT22;5008;50.656;7.188;2023-08-17T19:32:46;21.70;99.90
9939;DHT22;5008;50.656;7.188;2023-08-17T19:35:13;21.60;99.90
9939;DHT22;5008;50.656;7.188;2023-08-17T19:37:41;21.50;99.90
9939;DHT22;5008;50.656;7.188;2023-08-17T19:40:11;21.50;99.90
9939;DHT22;5008;50.656;7.188;2023-08-17T19:42:38;21.40;99.90
9939;DHT22;5008;50.656;7.188;2023-08-17T19:45:05;21.50;99.90
9939;DHT22;5008;50.656;7.188;2023-08-17T19:47:33;21.40;99.90
9939;DHT22;5008;50.656;7.188;2023-08-17T19:50:01;21.40;99.90
9939;DHT22;5008;50.656;7.188;2023-08-17T19:52:28;21.40;99.90
9939;DHT22;5008;50.656;7.188;2023-08-17T19:54:57;21.30;99.90
9939;DHT22;5008;50.656;7.188;2023-08-17T19:57:24;21.30;99.90
9939;DHT22;5008;50.656;7.188;2023-08-17T19:59:51;21.20;99.90
9939;DHT22;5008;50.656;7.188;2023-08-17T20:02:18;21.10;99.90
9939;DHT22;5008;50.656;7.188;2023-08-17T20:04:46;21.10;99.90
9939;DHT22;5008;50.656;7.188;2023-08-17T20:07:13;21.10;99.90
9939;DHT22;5008;50.656;7.188;2023-08-17T20:09:40;21.10;99.90
9939;DHT22;5008;50.656;7.188;2023-08-17T20:12:07;21.00;99.90
9939;DHT22;5008;50.656;7.188;2023-08-17T20:14:34;21.10;99.90
9939;DHT22;5008;50.656;7.188;2023-08-17T20:17:00;21.10;99.90
9939;DHT22;5008;50.656;7.188;2023-08-17T20:19:30;21.10;99.90